Time;durP1;ratioP1;P1;durP2;ratioP2;P2;SDS_P1;SDS_P2;PMS_P1;PMS_P2;Temp;Humidity;BMP_temperature;BMP_pressure;BME280_temperature;BME280_humidity;BME280_pressure;Samples;Min_cycle;Max_cycle;Signal;HPM_P1;HPM_P2
2022/08/02 00:00:54;;;;;;;0.00;0.00;;;;;;;11.99;96.53;101851.25;4988328;28;20022;-68
2022/08/02 00:03:19;;;;;;;0.10;0.10;;;;;;;11.98;96.93;101846.81;4983546;28;20371;-68
2022/08/02 00:05:45;;;;;;;0.00;0.00;;;;;;;12.00;97.51;101849.41;4984068;28;20030;-68
2022/08/02 00:08:10;;;;;;;0.00;0.00;;;;;;;12.02;98.17;101839.41;4978167;28;20048;-68
2022/08/02 00:10:35;;;;;;;0.00;0.00;;;;;;;12.03;98.09;101843.84;4982979;28;20054;-68
2022/08/02 00:13:01;;;;;;;0.03;0.03;;;;;;;12.03;96.97;101838.44;4979250;28;20109;-68
2022/08/02 00:15:26;;;;;;;0.00;0.00;;;;;;;12.00;96.95;101844.91;4984014;28;20410;-68
2022/08/02 00:17:51;;;;;;;0.00;0.00;;;;;;;12.02;96.67;101836.72;4986256;28;20472;-68
2022/08/02 00:20:17;;;;;;;0.00;0.00;;;;;;;12.02;96.99;101839.41;4980469;28;20067;-68
2022/08/02 00:22:42;;;;;;;0.00;0.00;;;;;;;12.03;97.02;101835.75;4978485;28;20026;-68
2022/08/02 00:25:07;;;;;;;0.00;0.00;;;;;;;12.05;96.97;101844.59;4985491;28;20437;-68
2022/08/02 00:27:33;;;;;;;0.00;0.00;;;;;;;12.02;97.16;101846.66;4985562;28;20066;-68
2022/08/02 00:29:58;;;;;;;0.00;0.00;;;;;;;11.93;98.61;101853.44;4977984;28;20490;-68
2022/08/02 00:32:24;;;;;;;0.05;0.05;;;;;;;11.75;99.59;101834.06;4980170;28;20044;-68
2022/08/02 00:34:49;;;;;;;0.00;0.00;;;;;;;11.79;99.91;101851.69;4983754;28;20047;-68
2022/08/02 00:37:14;;;;;;;0.00;0.00;;;;;;;11.81;99.96;101839.88;4980993;28;20070;-68
2022/08/02 00:39:41;;;;;;;0.00;0.00;;;;;;;11.88;99.26;101845.69;4982268;28;20037;-68
2022/08/02 00:42:07;;;;;;;0.05;0.05;;;;;;;11.90;98.49;101829.47;4980734;28;20425;-68
2022/08/02 00:44:32;;;;;;;0.00;0.00;;;;;;;11.95;97.80;101835.38;4978987;28;20471;-68
2022/08/02 00:46:57;;;;;;;0.00;0.00;;;;;;;11.87;97.51;101826.97;4978940;28;20050;-68
2022/08/02 00:49:23;;;;;;;0.00;0.00;;;;;;;11.95;97.55;101830.88;4982111;28;20042;-68
2022/08/02 00:51:48;;;;;;;0.00;0.00;;;;;;;11.94;97.70;101831.84;4981450;28;20031;-68
2022/08/02 00:54:13;;;;;;;0.00;0.00;;;;;;;11.91;97.44;101831.19;4982485;28;20030;-68
2022/08/02 00:56:39;;;;;;;0.00;0.00;;;;;;;11.93;97.61;101832.81;4984744;28;20105;-68
2022/08/02 00:59:04;;;;;;;0.00;0.00;;;;;;;11.84;97.16;101802.00;4979874;28;20417;-68
2022/08/02 01:01:39;;;;;;;0.10;0.10;;;;;;;12.02;97.09;101831.34;4981460;28;20037;-68
2022/08/02 01:04:09;;;;;;;0.03;0.03;;;;;;;12.04;96.56;101832.09;4982631;28;21117;-68
2022/08/02 01:06:36;;;;;;;0.00;0.00;;;;;;;12.04;95.86;101817.78;4983610;28;20041;-68
2022/08/02 01:09:02;;;;;;;0.00;0.00;;;;;;;12.01;95.20;101818.84;4978148;28;20096;-68
2022/08/02 01:11:28;;;;;;;0.10;0.10;;;;;;;12.03;94.83;101810.69;4974051;28;20471;-68
2022/08/02 01:14:01;;;;;;;0.00;0.00;;;;;;;12.03;94.43;101808.84;4978840;28;20042;-68
2022/08/02 01:16:30;;;;;;;0.00;0.00;;;;;;;12.03;93.93;101806.16;4980745;28;20120;-68
2022/08/02 01:19:01;;;;;;;0.20;0.10;;;;;;;11.84;93.90;101774.22;4977735;28;20050;-68
2022/08/02 01:21:53;;;;;;;0.00;0.00;;;;;;;11.89;94.26;101804.38;4978341;28;20069;-68
2022/08/02 01:24:18;;;;;;;0.00;0.00;;;;;;;11.88;94.79;101810.72;4978461;28;20587;-68
2022/08/02 01:27:04;;;;;;;0.00;0.00;;;;;;;11.92;94.55;101811.38;4979123;28;20034;-68
2022/08/02 01:29:33;;;;;;;0.00;0.00;;;;;;;11.93;94.16;101807.69;4981400;28;20536;-68
2022/08/02 01:32:05;;;;;;;0.00;0.00;;;;;;;11.88;93.93;101809.88;4971919;28;20040;-68
2022/08/02 01:35:01;;;;;;;0.00;0.00;;;;;;;11.76;93.94;101807.03;4977850;28;20272;-68
2022/08/02 01:37:38;;;;;;;0.00;0.00;;;;;;;11.68;94.87;101807.56;4975855;28;20077;-68
2022/08/02 01:40:07;;;;;;;0.00;0.00;;;;;;;11.68;95.00;101803.97;4979121;28;20034;-68
2022/08/02 01:42:33;;;;;;;0.00;0.00;;;;;;;11.70;95.55;101799.38;4977740;28;20031;-68
2022/08/02 01:45:00;;;;;;;0.00;0.00;;;;;;;11.72;95.50;101785.84;4985275;28;20037;-68
2022/08/02 01:47:29;;;;;;;0.00;0.00;;;;;;;11.81;94.69;101791.44;4984982;28;20084;-68
2022/08/02 01:49:56;;;;;;;0.00;0.00;;;;;;;11.76;94.59;101793.59;4982176;28;20022;-68
2022/08/02 01:52:25;;;;;;;0.10;0.10;;;;;;;11.50;94.62;101761.22;4981163;28;20185;-68
2022/08/02 01:54:58;;;;;;;0.00;0.00;;;;;;;11.60;94.91;101796.44;4979285;28;20124;-68
2022/08/02 01:57:25;;;;;;;0.00;0.00;;;;;;;11.51;95.94;101800.59;4980111;28;20026;-68
2022/08/02 01:59:52;;;;;;;0.00;0.00;;;;;;;11.54;95.93;101789.66;4979149;28;20121;-68
2022/08/02 02:02:18;;;;;;;0.00;0.00;;;;;;;11.62;95.54;101783.75;4980155;28;20596;-68
2022/08/02 02:04:44;;;;;;;0.10;0.10;;;;;;;11.68;95.42;101791.41;4982682;28;20464;-68
2022/08/02 02:07:11;;;;;;;0.00;0.00;;;;;;;11.59;94.61;101773.19;4981370;28;20058;-68
2022/08/02 02:09:38;;;;;;;0.03;0.03;;;;;;;11.66;94.86;101779.00;4972970;28;20037;-68
2022/08/02 02:12:04;;;;;;;0.10;0.10;;;;;;;11.66;94.64;101785.28;4976649;28;20117;-68
2022/08/02 02:14:29;;;;;;;0.10;0.10;;;;;;;11.70;94.45;101777.84;4981399;28;20437;-68
2022/08/02 02:16:56;;;;;;;0.10;0.10;;;;;;;11.75;94.55;101777.56;4976811;28;21160;-68
2022/08/02 02:19:22;;;;;;;0.00;0.00;;;;;;;11.82;94.33;101768.97;4975728;28;20491;-67
2022/08/02 02:21:47;;;;;;;0.10;0.10;;;;;;;11.82;93.99;101766.25;4974849;28;20022;-68
2022/08/02 02:24:12;;;;;;;0.00;0.00;;;;;;;11.78;94.07;101758.53;4981269;28;20038;-68
2022/08/02 02:26:40;;;;;;;0.10;0.10;;;;;;;11.84;93.73;101767.03;4982141;28;20041;-68
2022/08/02 02:29:08;;;;;;;0.10;0.10;;;;;;;11.87;93.77;101768.63;4979871;28;20429;-68
2022/08/02 02:31:41;;;;;;;0.03;0.03;;;;;;;11.84;93.48;101769.72;4979510;28;20443;-68
2022/08/02 02:34:13;;;;;;;0.10;0.10;;;;;;;11.74;93.55;101755.16;4976261;28;20033;-68
2022/08/02 02:36:40;;;;;;;0.00;0.00;;;;;;;11.80;94.10;101762.81;4982091;28;20395;-68
2022/08/02 02:39:07;;;;;;;0.00;0.00;;;;;;;11.81;94.25;101767.22;4973362;28;20059;-68
2022/08/02 02:41:32;;;;;;;0.10;0.10;;;;;;;11.82;94.33;101755.50;4977729;28;20064;-68
2022/08/02 02:44:00;;;;;;;0.10;0.10;;;;;;;11.76;94.34;101731.69;4955612;28;20113;-68
2022/08/02 02:46:27;;;;;;;0.00;0.00;;;;;;;11.80;94.21;101727.84;4975605;28;20042;-68
2022/08/02 02:48:53;;;;;;;0.00;0.00;;;;;;;11.87;93.99;101728.25;4976574;28;20022;-68
2022/08/02 02:51:21;;;;;;;0.10;0.10;;;;;;;12.03;93.79;101749.63;4957034;28;20023;-67
2022/08/02 02:53:49;;;;;;;0.00;0.00;;;;;;;12.13;93.61;101755.22;4975416;28;20113;-68
2022/08/02 02:56:15;;;;;;;0.10;0.10;;;;;;;12.13;93.57;101748.03;4979197;28;20073;-68
2022/08/02 02:58:41;;;;;;;0.00;0.00;;;;;;;12.15;93.28;101750.59;4977906;28;20053;-68
2022/08/02 03:03:52;;;;;;;0.10;0.10;;;;;;;12.21;94.26;101750.19;4979583;28;20033;-68
2022/08/02 03:06:18;;;;;;;0.00;0.00;;;;;;;12.27;94.03;101741.69;4977011;28;20026;-68
2022/08/02 03:08:43;;;;;;;0.00;0.00;;;;;;;12.29;95.47;101747.81;4975108;28;20042;-68
2022/08/02 03:11:09;;;;;;;0.10;0.10;;;;;;;12.29;96.48;101738.84;4973558;28;20034;-68
2022/08/02 03:13:34;;;;;;;0.00;0.00;;;;;;;12.10;96.26;101707.88;4979847;28;20530;-68
2022/08/02 03:16:00;;;;;;;0.00;0.00;;;;;;;12.34;95.63;101739.41;4978953;28;20037;-68
2022/08/02 03:18:37;;;;;;;0.00;0.00;;;;;;;12.40;95.07;101725.50;4976791;28;20450;-68
2022/08/02 03:21:06;;;;;;;0.00;0.00;;;;;;;12.36;96.04;101731.19;4977988;28;20034;-68
2022/08/02 03:23:31;;;;;;;0.00;0.00;;;;;;;12.34;95.27;101728.63;4978866;28;20056;-68
2022/08/02 03:25:57;;;;;;;0.10;0.10;;;;;;;12.36;94.69;101742.84;4974223;28;20027;-68
2022/08/02 03:28:23;;;;;;;0.10;0.10;;;;;;;12.41;94.62;101737.13;4981710;28;20034;-68
2022/08/02 03:30:48;;;;;;;0.10;0.10;;;;;;;12.34;94.41;101728.63;4981326;28;20041;-68
2022/08/02 03:33:13;;;;;;;0.00;0.00;;;;;;;12.51;94.36;101745.41;4980784;28;20502;-67
2022/08/02 03:35:43;;;;;;;0.00;0.00;;;;;;;12.45;94.16;101739.47;4979691;28;20129;-68
2022/08/02 03:38:10;;;;;;;0.00;0.00;;;;;;;12.44;94.52;101737.78;4980631;28;20466;-68
2022/08/02 03:40:35;;;;;;;0.10;0.10;;;;;;;12.40;94.75;101738.97;4981195;28;20033;-67
2022/08/02 03:43:01;;;;;;;0.03;0.03;;;;;;;12.42;94.82;101728.06;4983204;28;20034;-68
2022/08/02 03:45:27;;;;;;;0.10;0.10;;;;;;;12.37;94.57;101724.84;4981197;28;20371;-68
2022/08/02 03:47:52;;;;;;;0.00;0.00;;;;;;;12.34;94.61;101725.06;4976509;28;20094;-68
2022/08/02 03:50:18;;;;;;;0.10;0.10;;;;;;;12.31;94.57;101715.38;4983072;28;20038;-68
2022/08/02 03:52:44;;;;;;;0.10;0.10;;;;;;;12.37;94.18;101720.34;4978600;28;20038;-68
2022/08/02 03:55:11;;;;;;;0.00;0.00;;;;;;;12.37;94.56;101728.41;4977749;28;20030;-69
2022/08/02 03:57:38;;;;;;;0.00;0.00;;;;;;;12.25;94.48;101705.91;4983719;28;20033;-69
2022/08/02 04:00:05;;;;;;;0.00;0.00;;;;;;;12.36;94.53;101723.13;4987937;28;20030;-67
2022/08/02 04:02:30;;;;;;;0.00;0.00;;;;;;;12.33;94.63;101734.09;4986703;28;20034;-67
2022/08/02 04:04:55;;;;;;;0.00;0.00;;;;;;;12.29;94.27;101728.97;4981052;28;20023;-68
2022/08/02 04:07:21;;;;;;;0.10;0.10;;;;;;;12.25;94.95;101721.19;4985734;28;20779;-68
2022/08/02 04:09:46;;;;;;;0.00;0.00;;;;;;;12.18;95.31;101723.47;4986402;28;20144;-68
2022/08/02 04:12:11;;;;;;;0.03;0.03;;;;;;;12.14;95.48;101725.53;4983746;28;20041;-67
2022/08/02 04:14:37;;;;;;;0.00;0.00;;;;;;;12.17;95.58;101723.59;4980061;28;20157;-67
2022/08/02 04:17:05;;;;;;;0.00;0.00;;;;;;;12.16;95.45;101728.09;4987993;28;20133;-68
2022/08/02 04:19:41;;;;;;;0.00;0.00;;;;;;;12.21;96.06;101720.56;4983533;28;20065;-68
2022/08/02 04:22:20;;;;;;;0.03;0.03;;;;;;;12.28;95.81;101719.16;4977687;28;20546;-67
2022/08/02 04:24:51;;;;;;;0.00;0.00;;;;;;;12.32;95.79;101719.78;4985137;28;20041;-67
2022/08/02 04:27:17;;;;;;;0.08;0.08;;;;;;;12.41;95.64;101724.53;4974949;28;20105;-67
2022/08/02 04:29:42;;;;;;;0.10;0.10;;;;;;;12.49;95.88;101725.78;4983991;28;20435;-68
2022/08/02 04:32:08;;;;;;;0.00;0.00;;;;;;;12.53;95.71;101730.00;4984570;28;20076;-67
2022/08/02 04:34:34;;;;;;;0.00;0.00;;;;;;;12.37;95.55;101689.84;4981955;28;20035;-67
2022/08/02 04:36:59;;;;;;;0.10;0.10;;;;;;;12.64;95.34;101732.78;4975256;28;20053;-68
2022/08/02 04:39:26;;;;;;;0.10;0.10;;;;;;;12.71;94.85;101733.19;4979174;28;20492;-68
2022/08/02 04:41:51;;;;;;;0.10;0.10;;;;;;;12.75;95.45;101734.69;4979733;28;20299;-68
2022/08/02 04:44:16;;;;;;;0.10;0.10;;;;;;;12.79;95.05;101738.91;4977694;28;20486;-67
2022/08/02 04:46:43;;;;;;;0.00;0.00;;;;;;;12.79;95.43;101736.19;4982578;28;20041;-67
2022/08/02 04:49:08;;;;;;;0.00;0.00;;;;;;;12.80;94.80;101731.66;4980944;28;20419;-67
2022/08/02 04:51:41;;;;;;;0.00;0.00;;;;;;;12.57;94.65;101693.78;4975433;28;20080;-67
2022/08/02 04:54:07;;;;;;;0.00;0.00;;;;;;;12.67;94.85;101704.75;4983516;28;20034;-68
2022/08/02 04:56:33;;;;;;;0.10;0.10;;;;;;;12.84;94.90;101733.16;4981744;28;20061;-67
2022/08/02 04:58:58;;;;;;;0.10;0.10;;;;;;;12.86;95.19;101740.16;4982946;28;20117;-67
2022/08/02 05:01:23;;;;;;;0.00;0.00;;;;;;;12.90;95.13;101730.88;4980702;28;20121;-68
2022/08/02 05:03:49;;;;;;;0.10;0.10;;;;;;;12.79;95.62;101709.25;4980054;28;20036;-67
2022/08/02 05:06:15;;;;;;;0.10;0.10;;;;;;;12.85;95.64;101721.41;4984247;28;20064;-68
2022/08/02 05:08:40;;;;;;;0.00;0.00;;;;;;;12.84;95.56;101711.59;4985812;28;20117;-67
2022/08/02 05:11:05;;;;;;;0.00;0.00;;;;;;;12.92;95.83;101716.41;4974101;28;20066;-68
2022/08/02 05:13:31;;;;;;;0.05;0.05;;;;;;;13.02;95.71;101723.69;4981782;28;20050;-68
2022/08/02 05:16:00;;;;;;;0.05;0.00;;;;;;;13.08;95.71;101716.13;4982452;28;20026;-68
2022/08/02 05:18:27;;;;;;;0.08;0.08;;;;;;;13.16;95.79;101724.53;4982012;28;20037;-67
2022/08/02 05:20:52;;;;;;;0.10;0.10;;;;;;;13.20;95.94;101720.63;4977203;28;20037;-68
2022/08/02 05:23:18;;;;;;;0.00;0.00;;;;;;;13.31;95.67;101722.50;4983119;28;20030;-68
2022/08/02 05:25:43;;;;;;;0.00;0.00;;;;;;;13.39;95.17;101721.94;4984383;28;20041;-68
2022/08/02 05:28:08;;;;;;;0.00;0.00;;;;;;;13.48;94.70;101713.19;4985176;28;20113;-68
2022/08/02 05:30:34;;;;;;;0.00;0.00;;;;;;;13.57;94.91;101714.31;4980076;28;20033;-68
2022/08/02 05:32:59;;;;;;;0.10;0.10;;;;;;;13.64;94.23;101702.91;4985361;28;20029;-68
2022/08/02 05:35:24;;;;;;;0.10;0.10;;;;;;;13.74;95.09;101702.22;4985040;28;20046;-70
2022/08/02 05:37:50;;;;;;;0.00;0.00;;;;;;;13.81;94.75;101711.53;4983564;28;20534;-68
2022/08/02 05:40:16;;;;;;;0.10;0.10;;;;;;;13.93;93.62;101709.72;4978103;28;20031;-68
2022/08/02 05:42:42;;;;;;;0.10;0.10;;;;;;;14.06;93.88;101707.78;4986236;28;20026;-68
2022/08/02 05:45:08;;;;;;;0.10;0.10;;;;;;;14.09;94.31;101707.53;4981729;28;20119;-68
2022/08/02 05:47:33;;;;;;;0.00;0.00;;;;;;;14.16;96.02;101694.41;4988085;28;20034;-68
2022/08/02 05:49:59;;;;;;;0.03;0.03;;;;;;;14.25;96.17;101698.19;4983642;28;20046;-68
2022/08/02 05:52:28;;;;;;;0.10;0.10;;;;;;;14.40;95.66;101697.00;4976303;28;20463;-68
2022/08/02 05:54:58;;;;;;;0.00;0.00;;;;;;;14.56;94.57;101703.84;4985215;28;20058;-68
2022/08/02 05:57:30;;;;;;;0.03;0.03;;;;;;;14.64;94.75;101704.09;4986657;28;20034;-68
2022/08/02 06:00:08;;;;;;;0.05;0.05;;;;;;;14.79;93.85;101707.41;4977760;28;20387;-68
2022/08/02 06:03:04;;;;;;;0.10;0.10;;;;;;;14.85;91.92;101692.53;4982662;28;20022;-69
2022/08/02 06:05:33;;;;;;;0.00;0.00;;;;;;;14.91;93.64;101674.94;4983064;28;20064;-68
2022/08/02 06:07:59;;;;;;;0.10;0.10;;;;;;;15.23;92.83;101718.19;4986842;28;20089;-68
2022/08/02 06:10:26;;;;;;;0.00;0.00;;;;;;;15.19;91.00;101692.41;4980277;28;20034;-69
2022/08/02 06:13:05;;;;;;;0.03;0.03;;;;;;;15.41;91.83;101715.78;4984206;28;20026;-68
2022/08/02 06:15:30;;;;;;;0.00;0.00;;;;;;;15.62;92.74;101724.94;4984226;28;20034;-69
2022/08/02 06:17:56;;;;;;;0.00;0.00;;;;;;;15.79;93.18;101713.50;4987037;28;20033;-68
2022/08/02 06:20:23;;;;;;;0.00;0.00;;;;;;;15.97;93.35;101712.94;4977289;28;20073;-68
2022/08/02 06:22:48;;;;;;;0.00;0.00;;;;;;;16.14;92.64;101706.06;4987862;28;20041;-68
2022/08/02 06:25:13;;;;;;;0.00;0.00;;;;;;;16.33;93.17;101716.09;4982649;28;20476;-68
2022/08/02 06:27:40;;;;;;;0.00;0.00;;;;;;;16.49;90.22;101705.63;4981824;28;20088;-68
2022/08/02 06:30:07;;;;;;;0.00;0.00;;;;;;;16.79;89.25;101701.16;4984146;28;20414;-69
2022/08/02 06:32:33;;;;;;;0.00;0.00;;;;;;;16.87;89.14;101699.56;4982163;28;20022;-68
2022/08/02 06:34:58;;;;;;;0.00;0.00;;;;;;;16.96;88.46;101690.63;4976651;28;20034;-68
2022/08/02 06:37:32;;;;;;;0.00;0.00;;;;;;;16.98;88.00;101695.91;4982702;28;20125;-68
2022/08/02 06:40:07;;;;;;;0.00;0.00;;;;;;;17.24;89.32;101685.38;4981057;28;20026;-70
2022/08/02 06:42:44;;;;;;;0.00;0.00;;;;;;;17.13;87.77;101663.78;4978457;28;20508;-69
2022/08/02 06:45:09;;;;;;;0.10;0.10;;;;;;;17.39;88.71;101685.78;4980014;28;20072;-68
2022/08/02 06:47:34;;;;;;;0.00;0.00;;;;;;;17.50;88.28;101688.34;4982643;28;20507;-69
2022/08/02 06:50:00;;;;;;;0.00;0.00;;;;;;;17.62;86.35;101693.63;4983654;28;20033;-68
2022/08/02 06:52:27;;;;;;;0.00;0.00;;;;;;;17.66;85.13;101690.47;4977347;28;20022;-71
2022/08/02 06:54:54;;;;;;;0.00;0.00;;;;;;;17.82;86.89;101706.16;4983132;28;20019;-69
2022/08/02 06:57:20;;;;;;;0.00;0.00;;;;;;;18.03;83.82;101693.44;4977626;28;20038;-69
2022/08/02 06:59:45;;;;;;;0.10;0.10;;;;;;;18.19;83.83;101692.81;4976896;28;20035;-71
2022/08/02 07:02:10;;;;;;;0.00;0.00;;;;;;;18.08;83.49;101686.53;4983565;28;20037;-72
2022/08/02 07:04:36;;;;;;;0.00;0.00;;;;;;;18.22;84.53;101693.34;4981075;28;20486;-69
2022/08/02 07:07:01;;;;;;;0.10;0.10;;;;;;;18.31;85.52;101685.31;4983338;28;20521;-69
2022/08/02 07:09:26;;;;;;;0.00;0.00;;;;;;;18.46;85.19;101681.06;4981317;28;20053;-70
2022/08/02 07:11:52;;;;;;;0.00;0.00;;;;;;;18.64;85.15;101694.72;4982337;28;20030;-69
2022/08/02 07:14:17;;;;;;;0.00;0.00;;;;;;;18.84;84.98;101687.31;4985996;28;20085;-69
2022/08/02 07:16:42;;;;;;;0.00;0.00;;;;;;;19.11;83.11;101685.56;4990851;28;20533;-69
2022/08/02 07:19:08;;;;;;;0.00;0.00;;;;;;;19.41;80.76;101686.16;4984808;28;20116;-70
2022/08/02 07:21:33;;;;;;;0.00;0.00;;;;;;;19.43;82.44;101686.88;4977420;28;20491;-69
2022/08/02 07:23:58;;;;;;;0.00;0.00;;;;;;;19.52;81.36;101692.38;4978255;28;20427;-68
2022/08/02 07:26:24;;;;;;;0.00;0.00;;;;;;;19.63;80.38;101689.41;4991205;28;20034;-69
2022/08/02 07:28:49;;;;;;;0.03;0.03;;;;;;;19.73;80.75;101694.75;4983809;28;20037;-67
2022/08/02 07:31:14;;;;;;;0.00;0.00;;;;;;;19.81;78.92;101694.81;4989479;28;20061;-69
2022/08/02 07:33:40;;;;;;;0.00;0.00;;;;;;;19.96;77.90;101689.66;4986379;28;20030;-70
2022/08/02 07:36:06;;;;;;;0.00;0.00;;;;;;;19.98;77.27;101684.03;4988643;28;20081;-69
2022/08/02 07:38:31;;;;;;;0.00;0.00;;;;;;;20.01;79.40;101659.19;4983723;28;20026;-70
2022/08/02 07:40:57;;;;;;;0.00;0.00;;;;;;;20.11;78.48;101684.47;4986464;28;20077;-68
2022/08/02 07:43:22;;;;;;;0.00;0.00;;;;;;;20.18;78.89;101671.03;4983858;28;20121;-69
2022/08/02 07:45:48;;;;;;;0.00;0.00;;;;;;;20.22;78.48;101672.44;4990749;28;20030;-68
2022/08/02 07:48:13;;;;;;;0.00;0.00;;;;;;;20.35;80.15;101674.69;4985279;28;20058;-69
2022/08/02 07:50:38;;;;;;;0.00;0.00;;;;;;;20.36;78.85;101668.22;4987622;28;20117;-68
2022/08/02 07:53:04;;;;;;;0.00;0.00;;;;;;;20.37;78.78;101672.66;4986048;28;20077;-68
2022/08/02 07:55:29;;;;;;;0.00;0.00;;;;;;;20.19;76.58;101659.94;4988973;28;20442;-71
2022/08/02 07:57:54;;;;;;;0.00;0.00;;;;;;;20.54;76.87;101679.00;4985092;28;20038;-68
2022/08/02 08:00:19;;;;;;;0.00;0.00;;;;;;;20.51;77.46;101666.56;4987996;28;20041;-72
2022/08/02 08:02:46;;;;;;;0.00;0.00;;;;;;;20.62;75.53;101673.59;4984888;28;20224;-67
2022/08/02 08:05:12;;;;;;;0.00;0.00;;;;;;;20.70;75.26;101672.75;4988334;28;20066;-68
2022/08/02 08:07:38;;;;;;;0.00;0.00;;;;;;;20.99;73.98;101663.28;4985968;28;20540;-67
2022/08/02 08:10:04;;;;;;;0.00;0.00;;;;;;;21.04;74.56;101662.81;4989093;28;20122;-68
2022/08/02 08:12:30;;;;;;;0.00;0.00;;;;;;;21.03;73.95;101664.66;4981921;28;20731;-67
2022/08/02 08:14:55;;;;;;;0.00;0.00;;;;;;;;;;4983619;28;20478;-67
2022/08/02 08:17:20;;;;;;;0.00;0.00;;;;;;;21.16;75.42;101650.50;4988869;28;20030;-67
2022/08/02 08:19:46;;;;;;;0.00;0.00;;;;;;;21.20;72.85;101643.69;4986568;28;20311;-68
2022/08/02 08:22:11;;;;;;;0.00;0.00;;;;;;;21.50;71.47;101659.53;4987803;28;20497;-69
2022/08/02 08:24:37;;;;;;;0.00;0.00;;;;;;;21.52;71.96;101654.75;4988367;28;20054;-68
2022/08/02 08:27:04;;;;;;;0.00;0.00;;;;;;;21.51;73.11;101633.94;4979948;28;20027;-68
2022/08/02 08:29:29;;;;;;;0.00;0.00;;;;;;;21.78;70.63;101654.59;4980358;28;20109;-66
2022/08/02 08:31:55;;;;;;;0.00;0.00;;;;;;;21.95;71.08;101647.22;4982222;28;20062;-68
2022/08/02 08:34:20;;;;;;;0.00;0.00;;;;;;;22.04;71.56;101653.50;4984372;28;20044;-68
2022/08/02 08:36:45;;;;;;;0.00;0.00;;;;;;;21.96;72.69;101651.66;4978469;28;20573;-68
2022/08/02 08:39:11;;;;;;;0.00;0.00;;;;;;;21.91;71.67;101648.59;4983514;28;20034;-69
2022/08/02 08:41:36;;;;;;;0.00;0.00;;;;;;;22.14;71.17;101651.41;4984098;28;20030;-69
2022/08/02 08:44:02;;;;;;;0.00;0.00;;;;;;;22.34;72.18;101651.00;4977794;28;20497;-69
2022/08/02 08:46:30;;;;;;;0.00;0.00;;;;;;;22.37;68.53;101633.34;4988594;28;20027;-70
2022/08/02 08:49:02;;;;;;;0.00;0.00;;;;;;;22.37;71.63;101650.66;4982568;28;20030;-68
2022/08/02 08:51:36;;;;;;;0.00;0.00;;;;;;;22.56;72.57;101629.38;4984893;28;20026;-67
2022/08/02 08:54:03;;;;;;;0.05;0.00;;;;;;;22.85;68.11;101647.81;4984493;28;20026;-68
2022/08/02 08:56:33;;;;;;;0.00;0.00;;;;;;;23.08;65.61;101657.91;4987308;28;20061;-69
2022/08/02 08:59:00;;;;;;;0.00;0.00;;;;;;;22.85;66.08;101660.66;4983989;28;20034;-67
2022/08/02 09:01:25;;;;;;;0.00;0.00;;;;;;;22.84;66.94;101656.22;4984851;28;20036;-69
2022/08/02 09:03:50;;;;;;;0.00;0.00;;;;;;;22.83;67.42;101657.25;4978879;28;20023;-69
2022/08/02 09:06:16;;;;;;;0.00;0.00;;;;;;;22.88;66.16;101663.88;4981958;28;20030;-68
2022/08/02 09:08:41;;;;;;;0.00;0.00;;;;;;;23.30;65.86;101658.13;4976542;28;20031;-68
2022/08/02 09:11:14;;;;;;;0.00;0.00;;;;;;;23.39;68.04;101654.28;4981692;28;20069;-68
2022/08/02 09:13:57;;;;;;;0.00;0.00;;;;;;;23.51;62.99;101661.03;4980997;28;20027;-68
2022/08/02 09:16:31;;;;;;;0.00;0.00;;;;;;;23.49;61.77;101665.84;4978290;28;20034;-69
2022/08/02 09:18:56;;;;;;;;;;;;;;;23.31;63.02;101662.56;4984699;28;20046;-68
2022/08/02 09:21:22;;;;;;;0.10;0.00;;;;;;;23.58;63.99;101657.50;4978838;28;20741;-68
2022/08/02 09:23:50;;;;;;;0.00;0.00;;;;;;;23.45;62.62;101667.25;4980583;28;20085;-68
2022/08/02 09:26:21;;;;;;;0.00;0.00;;;;;;;23.35;63.42;101653.81;4979435;28;20030;-68
2022/08/02 09:28:51;;;;;;;0.00;0.00;;;;;;;23.49;63.52;101649.41;4978468;28;20026;-71
2022/08/02 09:31:21;;;;;;;0.00;0.00;;;;;;;23.65;60.27;101648.38;4981481;28;20014;-68
2022/08/02 09:33:58;;;;;;;0.00;0.00;;;;;;;23.80;58.35;101661.25;4984408;28;20033;-67
2022/08/02 09:36:24;;;;;;;0.00;0.00;;;;;;;23.94;59.04;101649.44;4976929;28;20041;-68
2022/08/02 09:39:01;;;;;;;0.00;0.00;;;;;;;24.05;57.25;101642.66;4984311;28;20034;-67
2022/08/02 09:41:33;;;;;;;0.00;0.00;;;;;;;24.03;54.88;101646.63;4979897;28;20454;-68
2022/08/02 09:44:00;;;;;;;0.00;0.00;;;;;;;24.00;54.32;101650.59;4983665;28;20041;-68
2022/08/02 09:46:29;;;;;;;0.00;0.00;;;;;;;24.16;53.14;101648.69;4981464;28;20038;-69
2022/08/02 09:49:02;;;;;;;0.00;0.00;;;;;;;24.42;52.96;101650.94;4981634;28;20540;-68
2022/08/02 09:51:30;;;;;;;0.00;0.00;;;;;;;24.32;51.46;101648.50;4978995;28;20134;-68
2022/08/02 09:53:58;;;;;;;0.00;0.00;;;;;;;24.44;49.50;101650.75;4979813;28;20038;-68
2022/08/02 09:56:24;;;;;;;0.00;0.00;;;;;;;24.18;51.29;101630.16;4982975;28;20040;-69
2022/08/02 09:58:52;;;;;;;0.00;0.00;;;;;;;24.30;49.81;101650.59;4981554;28;20057;-69
2022/08/02 10:01:18;;;;;;;0.00;0.00;;;;;;;24.19;50.42;101648.31;4984917;28;20462;-69
2022/08/02 10:03:55;;;;;;;0.00;0.00;;;;;;;24.49;50.20;101648.28;4984159;28;20060;-69
2022/08/02 10:06:20;;;;;;;0.00;0.00;;;;;;;24.51;47.63;101622.31;4980692;28;20117;-68
2022/08/02 10:08:46;;;;;;;0.00;0.00;;;;;;;24.39;48.73;101627.47;4981802;28;20758;-69
2022/08/02 10:11:11;;;;;;;0.00;0.00;;;;;;;24.59;48.12;101658.94;4983999;28;20101;-68
2022/08/02 10:13:37;;;;;;;0.00;0.00;;;;;;;24.56;48.33;101650.03;4981629;28;20038;-68
2022/08/02 10:16:04;;;;;;;0.00;0.00;;;;;;;24.91;50.84;101643.91;4984248;28;20054;-67
2022/08/02 10:18:30;;;;;;;0.00;0.00;;;;;;;25.13;48.15;101625.53;4981525;28;20366;-69
2022/08/02 10:20:55;;;;;;;0.00;0.00;;;;;;;25.46;49.16;101654.34;4982081;28;20030;-67
2022/08/02 10:23:24;;;;;;;0.00;0.00;;;;;;;25.09;46.78;101643.44;4980475;28;20033;-68
2022/08/02 10:25:50;;;;;;;0.00;0.00;;;;;;;25.44;47.45;101639.97;4981471;28;20394;-68
2022/08/02 10:28:17;;;;;;;0.00;0.00;;;;;;;26.09;43.56;101637.00;4986124;28;20486;-68
2022/08/02 10:30:44;;;;;;;0.00;0.00;;;;;;;26.45;42.29;101641.44;4973063;28;20029;-68
2022/08/02 10:33:10;;;;;;;0.00;0.00;;;;;;;26.72;42.14;101629.63;4975727;28;20486;-68
2022/08/02 10:35:37;;;;;;;0.00;0.00;;;;;;;26.83;44.93;101637.34;4981993;28;20030;-68
2022/08/02 10:38:06;;;;;;;0.00;0.00;;;;;;;27.26;44.35;101636.09;4978996;28;20510;-67
2022/08/02 10:40:45;;;;;;;0.00;0.00;;;;;;;27.70;40.50;101636.50;4982548;28;20038;-68
2022/08/02 10:43:11;;;;;;;0.00;0.00;;;;;;;27.87;41.83;101636.88;4983810;28;20034;-66
2022/08/02 10:45:36;;;;;;;0.00;0.00;;;;;;;28.04;42.26;101637.28;4984154;28;20030;-67
2022/08/02 10:48:10;;;;;;;0.00;0.00;;;;;;;28.14;40.14;101642.34;4984632;28;20036;-68
2022/08/02 10:50:45;;;;;;;0.00;0.00;;;;;;;27.58;42.12;101633.56;4974066;28;20031;-68
2022/08/02 10:53:26;;;;;;;0.00;0.00;;;;;;;27.61;41.46;101638.63;4979806;28;20031;-67
2022/08/02 10:55:54;;;;;;;0.00;0.00;;;;;;;27.68;40.80;101638.63;4977696;28;20026;-67
2022/08/02 10:58:21;;;;;;;0.00;0.00;;;;;;;26.91;42.28;101634.34;4986825;28;20346;-68
2022/08/02 11:00:48;;;;;;;0.00;0.00;;;;;;;26.71;44.04;101636.19;4976610;28;20030;-68
2022/08/02 11:03:38;;;;;;;0.00;0.00;;;;;;;25.75;42.63;101627.72;4983008;28;20529;-68
2022/08/02 11:06:11;;;;;;;0.00;0.00;;;;;;;26.02;43.45;101597.59;4978175;28;20027;-70
2022/08/02 11:08:37;;;;;;;0.00;0.00;;;;;;;26.13;45.16;101627.31;4973651;28;20026;-68
2022/08/02 11:11:22;;;;;;;0.00;0.00;;;;;;;26.99;46.80;101630.59;4981432;28;20077;-68
2022/08/02 11:14:07;;;;;;;0.00;0.00;;;;;;;27.32;45.58;101626.97;4977051;28;20366;-69
2022/08/02 11:16:54;;;;;;;0.00;0.00;;;;;;;27.65;41.36;101623.38;4978961;28;20568;-68
2022/08/02 11:19:19;;;;;;;0.00;0.00;;;;;;;27.94;40.16;101614.81;4974469;28;20059;-69
2022/08/02 11:22:00;;;;;;;0.00;0.00;;;;;;;28.59;37.29;101616.66;4982254;28;20451;-69
2022/08/02 11:24:28;;;;;;;0.00;0.00;;;;;;;28.31;38.96;101619.81;4984498;28;20069;-68
2022/08/02 11:26:54;;;;;;;0.00;0.00;;;;;;;28.16;39.69;101607.09;4985154;28;20022;-69
2022/08/02 11:29:20;;;;;;;0.00;0.00;;;;;;;28.91;37.48;101608.41;4973848;28;20034;-69
2022/08/02 11:31:46;;;;;;;0.00;0.00;;;;;;;29.42;35.19;101619.50;4981225;28;20029;-67